sensor_id;sensor_type;location;lat;lon;timestamp;P1;durP1;ratioP1;P2;durP2;ratioP2
69126;SDS011;56688;50.234;19.292;2022-07-18T00:00:37;4.30;;;2.80;;
69126;SDS011;56688;50.234;19.292;2022-07-18T00:03:04;5.60;;;3.00;;
69126;SDS011;56688;50.234;19.292;2022-07-18T00:05:31;5.00;;;2.70;;
69126;SDS011;56688;50.234;19.292;2022-07-18T00:07:58;7.10;;;3.00;;
69126;SDS011;56688;50.234;19.292;2022-07-18T00:10:25;4.40;;;3.00;;
69126;SDS011;56688;50.234;19.292;2022-07-18T00:12:52;6.70;;;3.00;;
69126;SDS011;56688;50.234;19.292;2022-07-18T00:15:19;4.90;;;3.20;;
69126;SDS011;56688;50.234;19.292;2022-07-18T00:17:46;6.20;;;4.00;;
69126;SDS011;56688;50.234;19.292;2022-07-18T00:20:13;8.00;;;4.30;;
69126;SDS011;56688;50.234;19.292;2022-07-18T00:22:40;6.00;;;3.90;;
69126;SDS011;56688;50.234;19.292;2022-07-18T00:25:07;6.00;;;3.70;;
69126;SDS011;56688;50.234;19.292;2022-07-18T00:27:34;5.80;;;3.70;;
69126;SDS011;56688;50.234;19.292;2022-07-18T00:30:01;5.70;;;3.70;;
69126;SDS011;56688;50.234;19.292;2022-07-18T00:32:30;6.20;;;3.50;;
69126;SDS011;56688;50.234;19.292;2022-07-18T00:34:57;7.30;;;3.40;;
69126;SDS011;56688;50.234;19.292;2022-07-18T00:37:23;4.90;;;3.30;;
69126;SDS011;56688;50.234;19.292;2022-07-18T00:39:50;4.40;;;3.20;;
69126;SDS011;56688;50.234;19.292;2022-07-18T00:42:17;4.80;;;3.20;;
69126;SDS011;56688;50.234;19.292;2022-07-18T00:44:44;7.40;;;3.70;;
69126;SDS011;56688;50.234;19.292;2022-07-18T00:47:11;4.50;;;3.10;;
69126;SDS011;56688;50.234;19.292;2022-07-18T00:49:38;4.60;;;3.10;;
69126;SDS011;56688;50.234;19.292;2022-07-18T00:52:05;6.60;;;3.70;;
69126;SDS011;56688;50.234;19.292;2022-07-18T00:54:32;5.60;;;3.50;;
69126;SDS011;56688;50.234;19.292;2022-07-18T00:56:59;5.50;;;3.10;;
69126;SDS011;56688;50.234;19.292;2022-07-18T00:59:27;4.70;;;3.10;;
69126;SDS011;56688;50.234;19.292;2022-07-18T01:02:15;5.00;;;2.90;;
69126;SDS011;56688;50.234;19.292;2022-07-18T01:04:42;6.20;;;3.40;;
69126;SDS011;56688;50.234;19.292;2022-07-18T01:07:09;6.20;;;3.50;;
69126;SDS011;56688;50.234;19.292;2022-07-18T01:09:37;5.40;;;3.40;;
69126;SDS011;56688;50.234;19.292;2022-07-18T01:12:05;5.00;;;3.20;;
69126;SDS011;56688;50.234;19.292;2022-07-18T01:14:32;4.80;;;3.30;;
69126;SDS011;56688;50.234;19.292;2022-07-18T01:16:59;5.50;;;3.50;;
69126;SDS011;56688;50.234;19.292;2022-07-18T01:19:27;6.00;;;3.40;;
69126;SDS011;56688;50.234;19.292;2022-07-18T01:21:53;7.20;;;3.30;;
69126;SDS011;56688;50.234;19.292;2022-07-18T01:24:20;5.60;;;3.60;;
69126;SDS011;56688;50.234;19.292;2022-07-18T01:26:47;6.60;;;3.60;;
69126;SDS011;56688;50.234;19.292;2022-07-18T01:29:15;5.00;;;3.20;;
69126;SDS011;56688;50.234;19.292;2022-07-18T01:31:42;4.80;;;3.20;;
69126;SDS011;56688;50.234;19.292;2022-07-18T01:34:09;6.80;;;3.30;;
69126;SDS011;56688;50.234;19.292;2022-07-18T01:36:36;4.00;;;3.10;;
69126;SDS011;56688;50.234;19.292;2022-07-18T01:39:05;6.10;;;2.90;;
69126;SDS011;56688;50.234;19.292;2022-07-18T01:41:31;4.50;;;3.00;;
69126;SDS011;56688;50.234;19.292;2022-07-18T01:43:59;6.70;;;2.90;;
69126;SDS011;56688;50.234;19.292;2022-07-18T01:46:26;4.90;;;3.00;;
69126;SDS011;56688;50.234;19.292;2022-07-18T01:48:53;8.40;;;3.20;;
69126;SDS011;56688;50.234;19.292;2022-07-18T01:51:20;5.70;;;3.40;;
69126;SDS011;56688;50.234;19.292;2022-07-18T01:53:53;7.30;;;3.70;;
69126;SDS011;56688;50.234;19.292;2022-07-18T01:56:22;6.30;;;3.20;;
69126;SDS011;56688;50.234;19.292;2022-07-18T01:58:49;6.20;;;3.20;;
69126;SDS011;56688;50.234;19.292;2022-07-18T02:01:17;7.60;;;3.40;;
69126;SDS011;56688;50.234;19.292;2022-07-18T02:03:44;4.70;;;2.90;;
69126;SDS011;56688;50.234;19.292;2022-07-18T02:06:11;9.40;;;3.50;;
69126;SDS011;56688;50.234;19.292;2022-07-18T02:08:38;6.60;;;3.30;;
69126;SDS011;56688;50.234;19.292;2022-07-18T02:11:05;6.40;;;3.20;;
69126;SDS011;56688;50.234;19.292;2022-07-18T02:13:32;4.70;;;3.30;;
69126;SDS011;56688;50.234;19.292;2022-07-18T02:15:59;4.90;;;3.20;;
69126;SDS011;56688;50.234;19.292;2022-07-18T02:18:27;7.10;;;3.00;;
69126;SDS011;56688;50.234;19.292;2022-07-18T02:20:54;6.50;;;3.20;;
69126;SDS011;56688;50.234;19.292;2022-07-18T02:23:21;7.10;;;3.50;;
69126;SDS011;56688;50.234;19.292;2022-07-18T02:25:48;4.50;;;3.00;;
69126;SDS011;56688;50.234;19.292;2022-07-18T02:28:15;5.40;;;3.30;;
69126;SDS011;56688;50.234;19.292;2022-07-18T02:30:42;4.70;;;3.40;;
69126;SDS011;56688;50.234;19.292;2022-07-18T02:33:09;5.20;;;3.50;;
69126;SDS011;56688;50.234;19.292;2022-07-18T02:35:36;4.60;;;3.20;;
69126;SDS011;56688;50.234;19.292;2022-07-18T02:38:03;7.20;;;3.30;;
69126;SDS011;56688;50.234;19.292;2022-07-18T02:40:30;7.30;;;3.70;;
69126;SDS011;56688;50.234;19.292;2022-07-18T02:42:57;6.40;;;3.10;;
69126;SDS011;56688;50.234;19.292;2022-07-18T02:45:24;6.20;;;3.30;;
69126;SDS011;56688;50.234;19.292;2022-07-18T02:47:52;5.10;;;3.10;;
69126;SDS011;56688;50.234;19.292;2022-07-18T02:50:20;5.10;;;3.20;;
69126;SDS011;56688;50.234;19.292;2022-07-18T02:52:47;6.60;;;4.10;;
69126;SDS011;56688;50.234;19.292;2022-07-18T02:55:15;3.80;;;2.90;;
69126;SDS011;56688;50.234;19.292;2022-07-18T02:57:42;4.60;;;3.20;;
69126;SDS011;56688;50.234;19.292;2022-07-18T03:00:10;6.60;;;3.70;;
69126;SDS011;56688;50.234;19.292;2022-07-18T03:02:40;7.50;;;3.40;;
69126;SDS011;56688;50.234;19.292;2022-07-18T03:05:09;5.80;;;3.10;;
69126;SDS011;56688;50.234;19.292;2022-07-18T03:07:36;4.40;;;3.10;;
69126;SDS011;56688;50.234;19.292;2022-07-18T03:10:04;6.50;;;3.40;;
69126;SDS011;56688;50.234;19.292;2022-07-18T03:12:32;7.90;;;3.90;;
69126;SDS011;56688;50.234;19.292;2022-07-18T03:14:59;8.10;;;4.40;;
69126;SDS011;56688;50.234;19.292;2022-07-18T03:17:27;8.50;;;3.70;;
69126;SDS011;56688;50.234;19.292;2022-07-18T03:19:54;5.50;;;3.50;;
69126;SDS011;56688;50.234;19.292;2022-07-18T03:22:21;7.30;;;3.40;;
69126;SDS011;56688;50.234;19.292;2022-07-18T03:24:48;6.10;;;3.50;;
69126;SDS011;56688;50.234;19.292;2022-07-18T03:27:15;5.20;;;3.50;;
69126;SDS011;56688;50.234;19.292;2022-07-18T03:29:42;5.50;;;3.50;;
69126;SDS011;56688;50.234;19.292;2022-07-18T03:32:09;5.30;;;3.70;;
69126;SDS011;56688;50.234;19.292;2022-07-18T03:34:36;9.20;;;4.00;;
69126;SDS011;56688;50.234;19.292;2022-07-18T03:37:03;6.80;;;3.80;;
69126;SDS011;56688;50.234;19.292;2022-07-18T03:39:30;5.20;;;3.60;;
69126;SDS011;56688;50.234;19.292;2022-07-18T03:41:57;7.40;;;3.80;;
69126;SDS011;56688;50.234;19.292;2022-07-18T03:44:24;6.60;;;3.30;;
69126;SDS011;56688;50.234;19.292;2022-07-18T03:46:51;6.40;;;3.70;;
69126;SDS011;56688;50.234;19.292;2022-07-18T03:49:20;6.90;;;3.60;;
69126;SDS011;56688;50.234;19.292;2022-07-18T03:51:47;6.40;;;3.30;;
69126;SDS011;56688;50.234;19.292;2022-07-18T03:54:14;5.20;;;3.50;;
69126;SDS011;56688;50.234;19.292;2022-07-18T03:56:41;6.50;;;3.70;;
69126;SDS011;56688;50.234;19.292;2022-07-18T03:59:08;5.70;;;3.20;;
69126;SDS011;56688;50.234;19.292;2022-07-18T04:01:35;5.80;;;3.60;;
69126;SDS011;56688;50.234;19.292;2022-07-18T04:04:01;8.40;;;4.00;;
69126;SDS011;56688;50.234;19.292;2022-07-18T04:06:29;6.50;;;3.60;;
69126;SDS011;56688;50.234;19.292;2022-07-18T04:08:57;6.00;;;3.60;;
69126;SDS011;56688;50.234;19.292;2022-07-18T04:11:24;7.50;;;3.70;;
69126;SDS011;56688;50.234;19.292;2022-07-18T04:13:51;8.20;;;3.80;;
69126;SDS011;56688;50.234;19.292;2022-07-18T04:16:23;6.30;;;3.80;;
69126;SDS011;56688;50.234;19.292;2022-07-18T04:18:50;5.70;;;3.70;;
69126;SDS011;56688;50.234;19.292;2022-07-18T04:21:17;7.00;;;3.50;;
69126;SDS011;56688;50.234;19.292;2022-07-18T04:23:44;11.00;;;4.20;;
69126;SDS011;56688;50.234;19.292;2022-07-18T04:26:11;5.60;;;3.40;;
69126;SDS011;56688;50.234;19.292;2022-07-18T04:28:38;6.40;;;3.40;;
69126;SDS011;56688;50.234;19.292;2022-07-18T04:31:05;7.70;;;3.40;;
69126;SDS011;56688;50.234;19.292;2022-07-18T04:33:32;7.50;;;3.30;;
69126;SDS011;56688;50.234;19.292;2022-07-18T04:35:59;7.90;;;3.60;;
69126;SDS011;56688;50.234;19.292;2022-07-18T04:38:26;7.00;;;3.40;;
69126;SDS011;56688;50.234;19.292;2022-07-18T04:40:55;7.00;;;3.50;;
69126;SDS011;56688;50.234;19.292;2022-07-18T04:43:23;5.60;;;3.30;;
69126;SDS011;56688;50.234;19.292;2022-07-18T04:45:50;7.40;;;3.60;;
69126;SDS011;56688;50.234;19.292;2022-07-18T04:48:17;4.80;;;3.30;;
69126;SDS011;56688;50.234;19.292;2022-07-18T04:50:44;6.30;;;3.60;;
69126;SDS011;56688;50.234;19.292;2022-07-18T04:53:11;5.70;;;3.40;;
69126;SDS011;56688;50.234;19.292;2022-07-18T04:55:38;6.20;;;3.70;;
69126;SDS011;56688;50.234;19.292;2022-07-18T04:58:05;7.40;;;3.60;;
69126;SDS011;56688;50.234;19.292;2022-07-18T05:00:32;7.20;;;3.70;;
69126;SDS011;56688;50.234;19.292;2022-07-18T05:02:59;6.50;;;3.50;;
69126;SDS011;56688;50.234;19.292;2022-07-18T05:05:27;7.10;;;3.70;;
69126;SDS011;56688;50.234;19.292;2022-07-18T05:08:01;8.10;;;3.80;;
69126;SDS011;56688;50.234;19.292;2022-07-18T05:10:29;11.60;;;4.70;;
69126;SDS011;56688;50.234;19.292;2022-07-18T05:12:56;6.90;;;4.20;;
69126;SDS011;56688;50.234;19.292;2022-07-18T05:15:24;11.00;;;5.00;;
69126;SDS011;56688;50.234;19.292;2022-07-18T05:17:52;8.20;;;4.80;;
69126;SDS011;56688;50.234;19.292;2022-07-18T05:20:20;10.90;;;5.20;;
69126;SDS011;56688;50.234;19.292;2022-07-18T05:22:49;8.20;;;4.80;;
69126;SDS011;56688;50.234;19.292;2022-07-18T05:25:18;9.20;;;4.80;;
69126;SDS011;56688;50.234;19.292;2022-07-18T05:27:50;14.30;;;6.00;;
69126;SDS011;56688;50.234;19.292;2022-07-18T05:30:18;11.20;;;6.10;;
69126;SDS011;56688;50.234;19.292;2022-07-18T05:32:45;11.00;;;6.20;;
69126;SDS011;56688;50.234;19.292;2022-07-18T05:35:14;13.40;;;5.90;;
69126;SDS011;56688;50.234;19.292;2022-07-18T05:37:41;10.00;;;6.20;;
69126;SDS011;56688;50.234;19.292;2022-07-18T05:40:09;14.80;;;7.10;;
69126;SDS011;56688;50.234;19.292;2022-07-18T05:42:37;12.40;;;7.90;;
69126;SDS011;56688;50.234;19.292;2022-07-18T05:45:23;12.10;;;6.70;;
69126;SDS011;56688;50.234;19.292;2022-07-18T05:47:51;12.90;;;6.60;;
69126;SDS011;56688;50.234;19.292;2022-07-18T05:50:20;9.50;;;5.60;;
69126;SDS011;56688;50.234;19.292;2022-07-18T05:52:47;12.60;;;6.10;;
69126;SDS011;56688;50.234;19.292;2022-07-18T05:55:15;10.20;;;5.60;;
69126;SDS011;56688;50.234;19.292;2022-07-18T05:57:42;14.20;;;5.40;;
69126;SDS011;56688;50.234;19.292;2022-07-18T06:00:12;12.00;;;5.40;;
69126;SDS011;56688;50.234;19.292;2022-07-18T06:02:39;13.80;;;6.20;;
69126;SDS011;56688;50.234;19.292;2022-07-18T06:05:07;13.30;;;6.20;;
69126;SDS011;56688;50.234;19.292;2022-07-18T06:07:47;14.90;;;6.10;;
69126;SDS011;56688;50.234;19.292;2022-07-18T06:10:15;16.30;;;5.30;;
69126;SDS011;56688;50.234;19.292;2022-07-18T06:12:42;14.60;;;5.50;;
69126;SDS011;56688;50.234;19.292;2022-07-18T06:15:09;8.80;;;4.80;;
69126;SDS011;56688;50.234;19.292;2022-07-18T06:17:36;12.40;;;4.90;;
69126;SDS011;56688;50.234;19.292;2022-07-18T06:20:04;14.70;;;4.90;;
69126;SDS011;56688;50.234;19.292;2022-07-18T06:22:35;11.60;;;4.60;;
69126;SDS011;56688;50.234;19.292;2022-07-18T06:25:03;9.10;;;4.10;;
69126;SDS011;56688;50.234;19.292;2022-07-18T06:27:31;12.60;;;4.90;;
69126;SDS011;56688;50.234;19.292;2022-07-18T06:29:58;7.50;;;4.10;;
69126;SDS011;56688;50.234;19.292;2022-07-18T06:32:26;9.60;;;4.20;;
69126;SDS011;56688;50.234;19.292;2022-07-18T06:34:52;11.60;;;4.20;;
69126;SDS011;56688;50.234;19.292;2022-07-18T06:37:19;8.70;;;4.00;;
69126;SDS011;56688;50.234;19.292;2022-07-18T06:39:46;11.80;;;4.30;;
69126;SDS011;56688;50.234;19.292;2022-07-18T06:42:13;10.70;;;4.20;;
69126;SDS011;56688;50.234;19.292;2022-07-18T06:44:40;7.80;;;3.70;;
69126;SDS011;56688;50.234;19.292;2022-07-18T06:47:07;12.60;;;4.20;;
69126;SDS011;56688;50.234;19.292;2022-07-18T06:49:34;9.30;;;3.50;;
69126;SDS011;56688;50.234;19.292;2022-07-18T06:52:01;8.60;;;3.60;;
69126;SDS011;56688;50.234;19.292;2022-07-18T06:54:30;9.40;;;3.40;;
69126;SDS011;56688;50.234;19.292;2022-07-18T06:57:00;6.30;;;3.20;;
69126;SDS011;56688;50.234;19.292;2022-07-18T06:59:29;9.30;;;3.90;;
69126;SDS011;56688;50.234;19.292;2022-07-18T07:01:56;10.20;;;3.10;;
69126;SDS011;56688;50.234;19.292;2022-07-18T07:04:23;9.10;;;2.60;;
69126;SDS011;56688;50.234;19.292;2022-07-18T07:06:50;7.50;;;3.30;;
69126;SDS011;56688;50.234;19.292;2022-07-18T07:09:17;10.40;;;3.00;;
69126;SDS011;56688;50.234;19.292;2022-07-18T07:11:44;11.10;;;3.50;;
69126;SDS011;56688;50.234;19.292;2022-07-18T07:14:12;9.50;;;2.90;;
69126;SDS011;56688;50.234;19.292;2022-07-18T07:16:39;6.40;;;2.70;;
69126;SDS011;56688;50.234;19.292;2022-07-18T07:19:06;7.30;;;2.90;;
69126;SDS011;56688;50.234;19.292;2022-07-18T07:21:33;4.60;;;2.40;;
69126;SDS011;56688;50.234;19.292;2022-07-18T07:24:00;9.10;;;2.90;;
69126;SDS011;56688;50.234;19.292;2022-07-18T07:26:27;7.00;;;2.60;;
69126;SDS011;56688;50.234;19.292;2022-07-18T07:28:54;7.90;;;2.40;;
69126;SDS011;56688;50.234;19.292;2022-07-18T07:31:21;6.50;;;2.50;;
69126;SDS011;56688;50.234;19.292;2022-07-18T07:33:48;5.00;;;2.20;;
69126;SDS011;56688;50.234;19.292;2022-07-18T07:36:16;7.00;;;2.60;;
69126;SDS011;56688;50.234;19.292;2022-07-18T07:38:43;6.60;;;2.10;;
69126;SDS011;56688;50.234;19.292;2022-07-18T07:41:10;7.00;;;2.10;;
69126;SDS011;56688;50.234;19.292;2022-07-18T07:43:39;7.30;;;2.10;;
69126;SDS011;56688;50.234;19.292;2022-07-18T07:46:07;4.10;;;1.80;;
69126;SDS011;56688;50.234;19.292;2022-07-18T07:48:34;5.30;;;2.10;;
69126;SDS011;56688;50.234;19.292;2022-07-18T07:51:01;6.80;;;1.90;;
69126;SDS011;56688;50.234;19.292;2022-07-18T07:53:30;4.80;;;1.60;;
69126;SDS011;56688;50.234;19.292;2022-07-18T07:55:57;3.10;;;1.50;;
69126;SDS011;56688;50.234;19.292;2022-07-18T07:58:24;6.20;;;1.60;;
69126;SDS011;56688;50.234;19.292;2022-07-18T08:00:51;4.60;;;1.70;;
69126;SDS011;56688;50.234;19.292;2022-07-18T08:03:19;5.70;;;1.80;;
69126;SDS011;56688;50.234;19.292;2022-07-18T08:05:47;4.40;;;1.80;;
69126;SDS011;56688;50.234;19.292;2022-07-18T08:08:15;3.60;;;1.50;;
69126;SDS011;56688;50.234;19.292;2022-07-18T08:10:43;5.00;;;1.50;;
69126;SDS011;56688;50.234;19.292;2022-07-18T08:13:11;4.90;;;1.80;;
69126;SDS011;56688;50.234;19.292;2022-07-18T08:15:39;3.90;;;1.60;;
69126;SDS011;56688;50.234;19.292;2022-07-18T08:18:06;4.70;;;1.50;;
69126;SDS011;56688;50.234;19.292;2022-07-18T08:20:33;3.90;;;1.50;;
69126;SDS011;56688;50.234;19.292;2022-07-18T08:23:03;3.80;;;1.60;;
69126;SDS011;56688;50.234;19.292;2022-07-18T08:25:33;5.50;;;1.60;;
69126;SDS011;56688;50.234;19.292;2022-07-18T08:28:02;6.90;;;1.40;;
69126;SDS011;56688;50.234;19.292;2022-07-18T08:30:30;5.30;;;1.50;;
69126;SDS011;56688;50.234;19.292;2022-07-18T08:32:58;4.10;;;1.40;;
69126;SDS011;56688;50.234;19.292;2022-07-18T08:35:28;6.70;;;1.70;;
69126;SDS011;56688;50.234;19.292;2022-07-18T08:37:56;3.60;;;1.70;;
69126;SDS011;56688;50.234;19.292;2022-07-18T08:40:24;5.30;;;1.70;;
69126;SDS011;56688;50.234;19.292;2022-07-18T08:42:52;6.30;;;1.50;;
69126;SDS011;56688;50.234;19.292;2022-07-18T08:45:43;2.90;;;1.40;;
69126;SDS011;56688;50.234;19.292;2022-07-18T08:48:14;4.70;;;1.60;;
69126;SDS011;56688;50.234;19.292;2022-07-18T08:50:44;5.80;;;1.50;;
69126;SDS011;56688;50.234;19.292;2022-07-18T08:53:12;8.90;;;1.50;;
69126;SDS011;56688;50.234;19.292;2022-07-18T08:55:40;5.20;;;1.60;;
69126;SDS011;56688;50.234;19.292;2022-07-18T08:58:07;6.30;;;1.80;;
69126;SDS011;56688;50.234;19.292;2022-07-18T09:00:56;4.10;;;1.30;;
69126;SDS011;56688;50.234;19.292;2022-07-18T09:03:25;4.70;;;1.40;;
69126;SDS011;56688;50.234;19.292;2022-07-18T09:08:38;6.00;;;1.60;;
69126;SDS011;56688;50.234;19.292;2022-07-18T09:11:10;6.80;;;1.70;;
69126;SDS011;56688;50.234;19.292;2022-07-18T09:13:58;5.00;;;1.80;;
69126;SDS011;56688;50.234;19.292;2022-07-18T09:16:25;2.90;;;1.60;;
69126;SDS011;56688;50.234;19.292;2022-07-18T09:18:54;6.50;;;1.50;;
69126;SDS011;56688;50.234;19.292;2022-07-18T09:21:22;4.60;;;1.60;;
69126;SDS011;56688;50.234;19.292;2022-07-18T09:23:50;5.90;;;1.40;;
69126;SDS011;56688;50.234;19.292;2022-07-18T09:29:02;4.60;;;1.50;;
69126;SDS011;56688;50.234;19.292;2022-07-18T09:31:51;4.50;;;1.60;;
69126;SDS011;56688;50.234;19.292;2022-07-18T09:37:03;7.00;;;1.60;;
69126;SDS011;56688;50.234;19.292;2022-07-18T09:39:31;5.30;;;1.70;;
69126;SDS011;56688;50.234;19.292;2022-07-18T09:42:12;6.10;;;1.50;;
69126;SDS011;56688;50.234;19.292;2022-07-18T09:44:40;4.90;;;1.40;;
69126;SDS011;56688;50.234;19.292;2022-07-18T09:47:07;5.90;;;1.60;;
69126;SDS011;56688;50.234;19.292;2022-07-18T09:49:34;5.00;;;1.70;;
69126;SDS011;56688;50.234;19.292;2022-07-18T09:52:02;4.20;;;1.40;;
69126;SDS011;56688;50.234;19.292;2022-07-18T09:54:36;4.00;;;1.50;;
69126;SDS011;56688;50.234;19.292;2022-07-18T09:57:05;3.70;;;1.70;;
69126;SDS011;56688;50.234;19.292;2022-07-18T09:59:34;5.50;;;1.80;;
69126;SDS011;56688;50.234;19.292;2022-07-18T10:02:03;5.20;;;1.70;;
69126;SDS011;56688;50.234;19.292;2022-07-18T10:04:31;7.40;;;1.60;;
69126;SDS011;56688;50.234;19.292;2022-07-18T10:06:58;7.50;;;1.60;;
69126;SDS011;56688;50.234;19.292;2022-07-18T10:09:25;5.70;;;1.40;;
69126;SDS011;56688;50.234;19.292;2022-07-18T10:11:53;6.10;;;1.90;;
69126;SDS011;56688;50.234;19.292;2022-07-18T10:14:26;3.80;;;1.60;;
69126;SDS011;56688;50.234;19.292;2022-07-18T10:16:56;4.90;;;1.70;;
69126;SDS011;56688;50.234;19.292;2022-07-18T10:19:25;3.60;;;1.40;;
69126;SDS011;56688;50.234;19.292;2022-07-18T10:21:53;5.70;;;1.70;;
69126;SDS011;56688;50.234;19.292;2022-07-18T10:24:23;5.50;;;1.70;;
69126;SDS011;56688;50.234;19.292;2022-07-18T10:29:39;3.40;;;1.80;;
69126;SDS011;56688;50.234;19.292;2022-07-18T10:32:42;3.50;;;1.40;;
69126;SDS011;56688;50.234;19.292;2022-07-18T10:35:09;2.60;;;1.40;;
69126;SDS011;56688;50.234;19.292;2022-07-18T10:37:38;4.90;;;1.70;;
69126;SDS011;56688;50.234;19.292;2022-07-18T10:45:53;5.90;;;2.00;;
69126;SDS011;56688;50.234;19.292;2022-07-18T10:51:08;7.70;;;1.90;;
69126;SDS011;56688;50.234;19.292;2022-07-18T10:56:20;4.20;;;1.60;;
69126;SDS011;56688;50.234;19.292;2022-07-18T11:01:53;5.20;;;1.70;;
69126;SDS011;56688;50.234;19.292;2022-07-18T11:04:22;6.70;;;1.80;;
69126;SDS011;56688;50.234;19.292;2022-07-18T11:09:42;3.80;;;1.40;;
69126;SDS011;56688;50.234;19.292;2022-07-18T11:12:25;5.20;;;1.70;;
69126;SDS011;56688;50.234;19.292;2022-07-18T11:22:57;4.30;;;1.80;;
69126;SDS011;56688;50.234;19.292;2022-07-18T11:25:26;5.10;;;1.70;;
69126;SDS011;56688;50.234;19.292;2022-07-18T11:28:14;5.60;;;1.80;;
69126;SDS011;56688;50.234;19.292;2022-07-18T11:30:42;5.60;;;1.50;;
69126;SDS011;56688;50.234;19.292;2022-07-18T11:38:37;6.80;;;1.50;;
69126;SDS011;56688;50.234;19.292;2022-07-18T11:41:16;5.00;;;1.50;;
69126;SDS011;56688;50.234;19.292;2022-07-18T11:43:43;7.10;;;1.80;;
69126;SDS011;56688;50.234;19.292;2022-07-18T11:46:12;5.30;;;1.60;;
69126;SDS011;56688;50.234;19.292;2022-07-18T11:48:43;5.80;;;1.50;;
69126;SDS011;56688;50.234;19.292;2022-07-18T11:51:17;3.40;;;1.50;;
69126;SDS011;56688;50.234;19.292;2022-07-18T11:53:47;2.90;;;1.40;;
69126;SDS011;56688;50.234;19.292;2022-07-18T11:56:16;5.00;;;1.60;;
69126;SDS011;56688;50.234;19.292;2022-07-18T11:58:45;4.70;;;1.70;;
69126;SDS011;56688;50.234;19.292;2022-07-18T12:01:15;6.10;;;1.50;;
69126;SDS011;56688;50.234;19.292;2022-07-18T12:03:45;3.90;;;1.70;;
69126;SDS011;56688;50.234;19.292;2022-07-18T12:08:43;4.00;;;1.40;;
69126;SDS011;56688;50.234;19.292;2022-07-18T12:13:59;3.00;;;1.50;;
69126;SDS011;56688;50.234;19.292;2022-07-18T12:16:35;4.90;;;1.60;;
69126;SDS011;56688;50.234;19.292;2022-07-18T12:19:07;3.20;;;1.30;;
69126;SDS011;56688;50.234;19.292;2022-07-18T12:35:08;5.10;;;1.70;;
69126;SDS011;56688;50.234;19.292;2022-07-18T12:37:52;5.50;;;1.60;;
69126;SDS011;56688;50.234;19.292;2022-07-18T12:40:21;4.90;;;1.50;;
69126;SDS011;56688;50.234;19.292;2022-07-18T12:45:37;7.00;;;1.80;;
69126;SDS011;56688;50.234;19.292;2022-07-18T12:48:06;7.20;;;2.00;;
69126;SDS011;56688;50.234;19.292;2022-07-18T12:50:35;3.80;;;1.70;;
69126;SDS011;56688;50.234;19.292;2022-07-18T12:53:02;3.70;;;1.50;;
69126;SDS011;56688;50.234;19.292;2022-07-18T12:55:30;4.30;;;1.60;;
69126;SDS011;56688;50.234;19.292;2022-07-18T12:57:59;4.10;;;1.60;;
69126;SDS011;56688;50.234;19.292;2022-07-18T13:00:28;6.20;;;1.90;;
69126;SDS011;56688;50.234;19.292;2022-07-18T13:02:56;4.80;;;1.80;;
69126;SDS011;56688;50.234;19.292;2022-07-18T13:05:26;7.10;;;1.80;;
69126;SDS011;56688;50.234;19.292;2022-07-18T13:07:56;5.10;;;1.70;;
69126;SDS011;56688;50.234;19.292;2022-07-18T13:10:23;6.40;;;1.70;;
69126;SDS011;56688;50.234;19.292;2022-07-18T13:12:51;3.80;;;1.30;;
69126;SDS011;56688;50.234;19.292;2022-07-18T13:15:18;6.50;;;1.60;;
69126;SDS011;56688;50.234;19.292;2022-07-18T13:17:47;4.30;;;1.60;;
69126;SDS011;56688;50.234;19.292;2022-07-18T13:20:16;5.80;;;1.50;;
69126;SDS011;56688;50.234;19.292;2022-07-18T13:22:43;9.80;;;1.90;;
69126;SDS011;56688;50.234;19.292;2022-07-18T13:25:19;4.00;;;1.50;;
69126;SDS011;56688;50.234;19.292;2022-07-18T13:27:48;5.50;;;1.30;;
69126;SDS011;56688;50.234;19.292;2022-07-18T13:30:15;3.90;;;1.50;;
69126;SDS011;56688;50.234;19.292;2022-07-18T13:32:42;3.30;;;1.40;;
69126;SDS011;56688;50.234;19.292;2022-07-18T13:35:12;6.10;;;1.60;;
69126;SDS011;56688;50.234;19.292;2022-07-18T13:37:40;2.70;;;1.20;;
69126;SDS011;56688;50.234;19.292;2022-07-18T13:40:07;6.20;;;1.60;;
69126;SDS011;56688;50.234;19.292;2022-07-18T13:42:35;5.10;;;1.40;;
69126;SDS011;56688;50.234;19.292;2022-07-18T13:45:03;5.80;;;1.50;;
69126;SDS011;56688;50.234;19.292;2022-07-18T13:47:31;4.50;;;1.50;;
69126;SDS011;56688;50.234;19.292;2022-07-18T13:49:58;2.20;;;1.30;;
69126;SDS011;56688;50.234;19.292;2022-07-18T13:52:25;5.30;;;1.30;;
69126;SDS011;56688;50.234;19.292;2022-07-18T13:54:52;4.30;;;1.50;;
69126;SDS011;56688;50.234;19.292;2022-07-18T13:57:22;4.30;;;1.50;;
69126;SDS011;56688;50.234;19.292;2022-07-18T13:59:49;4.40;;;1.60;;
69126;SDS011;56688;50.234;19.292;2022-07-18T14:02:16;5.90;;;1.40;;
69126;SDS011;56688;50.234;19.292;2022-07-18T14:04:44;3.50;;;1.30;;
69126;SDS011;56688;50.234;19.292;2022-07-18T14:07:31;3.20;;;1.40;;
69126;SDS011;56688;50.234;19.292;2022-07-18T14:09:58;2.70;;;1.30;;
69126;SDS011;56688;50.234;19.292;2022-07-18T14:12:25;3.60;;;1.30;;
69126;SDS011;56688;50.234;19.292;2022-07-18T14:14:53;3.30;;;1.40;;
69126;SDS011;56688;50.234;19.292;2022-07-18T14:17:20;4.90;;;1.40;;
69126;SDS011;56688;50.234;19.292;2022-07-18T14:19:47;5.10;;;1.40;;
69126;SDS011;56688;50.234;19.292;2022-07-18T14:22:13;4.90;;;1.40;;
69126;SDS011;56688;50.234;19.292;2022-07-18T14:24:40;3.50;;;1.70;;
69126;SDS011;56688;50.234;19.292;2022-07-18T14:27:07;4.50;;;1.50;;
69126;SDS011;56688;50.234;19.292;2022-07-18T14:29:34;3.40;;;1.40;;
69126;SDS011;56688;50.234;19.292;2022-07-18T14:32:03;4.60;;;1.60;;
69126;SDS011;56688;50.234;19.292;2022-07-18T14:34:31;4.60;;;1.50;;
69126;SDS011;56688;50.234;19.292;2022-07-18T14:36:59;4.90;;;1.40;;
69126;SDS011;56688;50.234;19.292;2022-07-18T14:39:26;5.20;;;1.40;;
69126;SDS011;56688;50.234;19.292;2022-07-18T14:41:53;4.50;;;1.60;;
69126;SDS011;56688;50.234;19.292;2022-07-18T14:44:20;5.20;;;1.50;;
69126;SDS011;56688;50.234;19.292;2022-07-18T14:46:47;3.30;;;1.30;;
69126;SDS011;56688;50.234;19.292;2022-07-18T14:49:14;3.80;;;1.70;;
69126;SDS011;56688;50.234;19.292;2022-07-18T14:51:41;3.70;;;1.80;;
69126;SDS011;56688;50.234;19.292;2022-07-18T14:54:08;3.50;;;1.50;;
69126;SDS011;56688;50.234;19.292;2022-07-18T14:56:37;4.80;;;1.40;;
69126;SDS011;56688;50.234;19.292;2022-07-18T14:59:04;2.40;;;1.30;;
69126;SDS011;56688;50.234;19.292;2022-07-18T15:01:31;4.80;;;1.30;;
69126;SDS011;56688;50.234;19.292;2022-07-18T15:03:59;3.70;;;1.40;;
69126;SDS011;56688;50.234;19.292;2022-07-18T15:06:33;4.00;;;1.50;;
69126;SDS011;56688;50.234;19.292;2022-07-18T15:09:00;2.60;;;1.30;;
69126;SDS011;56688;50.234;19.292;2022-07-18T15:11:27;3.20;;;1.40;;
69126;SDS011;56688;50.234;19.292;2022-07-18T15:13:54;3.70;;;1.30;;
69126;SDS011;56688;50.234;19.292;2022-07-18T15:16:22;4.60;;;1.40;;
69126;SDS011;56688;50.234;19.292;2022-07-18T15:18:49;2.60;;;1.30;;
69126;SDS011;56688;50.234;19.292;2022-07-18T15:21:16;3.40;;;1.40;;
69126;SDS011;56688;50.234;19.292;2022-07-18T15:23:43;3.10;;;1.30;;
69126;SDS011;56688;50.234;19.292;2022-07-18T15:26:11;4.50;;;1.70;;
69126;SDS011;56688;50.234;19.292;2022-07-18T15:28:38;3.00;;;1.50;;
69126;SDS011;56688;50.234;19.292;2022-07-18T15:31:05;4.40;;;1.70;;
69126;SDS011;56688;50.234;19.292;2022-07-18T15:33:34;5.30;;;1.30;;
69126;SDS011;56688;50.234;19.292;2022-07-18T15:36:00;5.40;;;1.40;;
69126;SDS011;56688;50.234;19.292;2022-07-18T15:38:27;5.80;;;1.40;;
69126;SDS011;56688;50.234;19.292;2022-07-18T15:40:54;2.60;;;1.50;;
69126;SDS011;56688;50.234;19.292;2022-07-18T15:43:21;2.50;;;1.50;;